Owens X Roads, Alabama
Current Conditions -  °F | °C
As of 5:58 PM on Tuesday 25 Nov 2014 (Local Time) from KHUA Reporting Station
Broken Clouds Broken Clouds  
Wind Chill: 45°   Ceiling: 13000
Heat Index: 49°   Visibility: 10mi
Dew Point: 28°   Wind: 8mph
Humidity: 45%   Direction: 330°NNW
Pressure: 30.11"   Gusts: NA
Location:  34.611°N, 86.4644°W
Report Text: KHUA 252358Z AUTO 33007KT 10SM FEW100 BKN130 09/M02 A3011 RMK AO2 SLP200 T00931020 10135 20091 50013
Loading
Personal Weather Stations






























Interactive Weather Map New forecast layout! Learn more

10-Day Weather Forecast

Advertisements
Track Severe Weather on mobile